createdAt,value
2022-12-23T00:01:17.990Z,15.30
2022-12-23T00:03:45.023Z,15.30
2022-12-23T00:06:14.585Z,15.30
2022-12-23T00:08:42.393Z,15.30
2022-12-23T00:11:14.716Z,15.40
2022-12-23T00:13:59.894Z,15.30
2022-12-23T00:16:26.980Z,15.30
2022-12-23T00:18:54.605Z,15.30
2022-12-23T00:21:22.071Z,15.20
2022-12-23T00:23:50.840Z,15.20
2022-12-23T00:26:24.254Z,15.20
2022-12-23T00:28:51.482Z,15.30
2022-12-23T00:31:19.958Z,15.20
2022-12-23T00:33:50.163Z,15.10
2022-12-23T00:36:27.721Z,15.20
2022-12-23T00:39:13.881Z,15.20
2022-12-23T00:41:59.381Z,15.20
2022-12-23T00:44:26.514Z,15.20
2022-12-23T00:46:53.570Z,15.20
2022-12-23T00:49:39.823Z,15.20
2022-12-23T00:52:09.496Z,15.20
2022-12-23T00:54:36.584Z,15.20
2022-12-23T00:57:04.246Z,15.20
2022-12-23T00:59:31.073Z,15.20
2022-12-23T01:02:16.291Z,15.20
2022-12-23T01:05:01.781Z,15.30
2022-12-23T01:07:28.773Z,15.30
2022-12-23T01:09:55.616Z,15.20
2022-12-23T01:12:22.384Z,15.30
2022-12-23T01:14:49.199Z,15.30
2022-12-23T01:17:16.509Z,15.30
2022-12-23T01:19:43.642Z,15.30
2022-12-23T01:22:10.492Z,15.30
2022-12-23T01:24:37.294Z,15.20
2022-12-23T01:27:04.024Z,15.30
2022-12-23T01:29:30.923Z,15.30
2022-12-23T01:31:58.109Z,15.30
2022-12-23T01:34:25.998Z,15.30
2022-12-23T01:36:55.391Z,15.20
2022-12-23T01:39:22.183Z,15.20
2022-12-23T01:42:07.374Z,15.20
2022-12-23T01:44:48.853Z,15.20
2022-12-23T01:47:44.564Z,15.20
2022-12-23T01:50:32.669Z,15.20
2022-12-23T01:53:14.604Z,15.10
2022-12-23T01:55:47.282Z,15.20
2022-12-23T01:58:28.674Z,15.10
2022-12-23T02:01:16.421Z,15.10
2022-12-23T02:03:45.372Z,15.10
2022-12-23T02:06:42.654Z,15.00
2022-12-23T02:09:19.443Z,15.10
2022-12-23T02:12:14.739Z,15.10
2022-12-23T02:15:30.876Z,15.10
2022-12-23T02:18:32.758Z,15.10
2022-12-23T02:21:14.794Z,15.20
2022-12-23T02:23:47.223Z,15.10
2022-12-23T02:26:28.990Z,15.10
2022-12-23T02:29:18.641Z,15.10
2022-12-23T02:32:05.197Z,15.10
2022-12-23T02:34:49.808Z,15.20
2022-12-23T02:37:42.296Z,15.20
2022-12-23T02:40:24.649Z,15.10
2022-12-23T02:42:59.282Z,15.00
2022-12-23T02:45:39.737Z,15.00
2022-12-23T02:48:22.311Z,15.10
2022-12-23T02:50:51.192Z,15.10
2022-12-23T02:53:32.471Z,15.10
2022-12-23T02:56:02.078Z,15.00
2022-12-23T02:58:33.835Z,15.00
2022-12-23T03:01:01.886Z,15.00
2022-12-23T03:03:29.315Z,14.90
2022-12-23T03:05:56.617Z,14.90
2022-12-23T03:08:31.092Z,14.90
2022-12-23T03:11:15.256Z,14.90
2022-12-23T03:14:10.054Z,14.80
2022-12-23T03:17:13.897Z,14.80
2022-12-23T03:19:45.403Z,14.80
2022-12-23T03:22:15.177Z,14.80
2022-12-23T03:25:03.005Z,14.70
2022-12-23T03:27:43.111Z,14.70
2022-12-23T03:30:17.023Z,14.70
2022-12-23T03:32:48.304Z,14.70
2022-12-23T03:35:20.163Z,14.70
2022-12-23T03:37:50.620Z,14.70
2022-12-23T03:40:22.716Z,14.70
2022-12-23T03:42:56.735Z,14.60
2022-12-23T03:45:40.710Z,14.60
2022-12-23T03:48:24.106Z,14.70
2022-12-23T03:50:56.810Z,14.70
2022-12-23T03:53:34.830Z,14.70
2022-12-23T03:56:09.819Z,14.70
2022-12-23T03:58:52.784Z,14.70
2022-12-23T04:01:44.717Z,14.70
2022-12-23T04:04:26.520Z,14.70
2022-12-23T04:07:17.429Z,14.60
2022-12-23T04:09:44.946Z,14.70
2022-12-23T04:12:13.827Z,14.80
2022-12-23T04:14:48.193Z,14.80
2022-12-23T04:17:15.949Z,14.80
2022-12-23T04:19:45.461Z,14.80
2022-12-23T04:22:13.850Z,14.80
2022-12-23T04:24:40.665Z,14.80
2022-12-23T04:27:09.823Z,14.80
2022-12-23T04:29:36.615Z,14.80
2022-12-23T04:32:03.511Z,14.80
2022-12-23T04:34:30.354Z,14.80
2022-12-23T04:36:57.297Z,14.80
2022-12-23T04:39:24.300Z,14.90
2022-12-23T04:41:51.546Z,14.90
2022-12-23T04:44:18.403Z,14.90
2022-12-23T04:46:45.435Z,15.00
2022-12-23T04:49:12.283Z,15.10
2022-12-23T04:51:39.080Z,15.10
2022-12-23T04:54:05.869Z,15.20
2022-12-23T04:56:32.616Z,15.30
2022-12-23T04:59:02.264Z,15.30
2022-12-23T05:01:29.772Z,15.40
2022-12-23T05:03:56.685Z,15.40
2022-12-23T05:06:23.559Z,15.40
2022-12-23T05:08:50.354Z,15.30
2022-12-23T05:11:17.143Z,15.20
2022-12-23T05:13:43.935Z,15.10
2022-12-23T05:16:10.880Z,15.10
2022-12-23T05:18:39.012Z,15.00
2022-12-23T05:21:05.812Z,15.00
2022-12-23T05:23:32.849Z,15.00
2022-12-23T05:25:59.665Z,14.90
2022-12-23T05:28:26.406Z,14.90
2022-12-23T05:31:05.290Z,14.90
2022-12-23T05:33:35.405Z,14.90
2022-12-23T05:36:02.628Z,14.90
2022-12-23T05:38:29.668Z,14.90
2022-12-23T05:40:56.697Z,14.90
2022-12-23T05:43:24.074Z,14.90
2022-12-23T05:45:51.536Z,14.90
2022-12-23T05:48:18.419Z,14.90
2022-12-23T05:50:45.272Z,14.90
2022-12-23T05:53:12.008Z,14.90
2022-12-23T05:55:38.847Z,14.90
2022-12-23T05:58:05.814Z,14.80
2022-12-23T06:00:32.685Z,14.70
2022-12-23T06:02:59.590Z,14.70
2022-12-23T06:05:26.636Z,14.80
2022-12-23T06:07:53.418Z,14.80
2022-12-23T06:10:20.231Z,14.90
2022-12-23T06:12:46.952Z,15.00
2022-12-23T06:15:13.844Z,15.00
2022-12-23T06:17:40.646Z,15.10
2022-12-23T06:20:08.501Z,15.20
2022-12-23T06:22:35.294Z,15.30
2022-12-23T06:25:02.151Z,15.40
2022-12-23T06:27:29.043Z,15.50
2022-12-23T06:29:56.241Z,15.60
2022-12-23T06:32:22.994Z,15.60
2022-12-23T06:34:53.273Z,15.60
2022-12-23T06:37:23.154Z,15.60
2022-12-23T06:39:49.957Z,15.70
2022-12-23T06:42:16.743Z,15.60
2022-12-23T06:44:43.541Z,15.60
2022-12-23T06:47:10.424Z,15.60
2022-12-23T06:49:37.170Z,15.60
2022-12-23T06:52:04.195Z,15.60
2022-12-23T06:54:31.228Z,15.50
2022-12-23T06:56:58.111Z,15.50
2022-12-23T06:59:24.954Z,15.50
2022-12-23T07:01:51.813Z,15.60
2022-12-23T07:04:18.587Z,15.50
2022-12-23T07:06:46.542Z,15.50
2022-12-23T07:09:14.487Z,15.50
2022-12-23T07:11:41.326Z,15.50
2022-12-23T07:14:08.167Z,15.60
2022-12-23T07:16:35.027Z,15.60
2022-12-23T07:19:01.887Z,15.70
2022-12-23T07:21:30.000Z,15.70
2022-12-23T07:23:57.067Z,15.60
2022-12-23T07:26:23.959Z,15.60
2022-12-23T07:28:50.750Z,15.60
2022-12-23T07:31:17.504Z,15.60
2022-12-23T07:33:44.656Z,15.50
2022-12-23T07:36:11.538Z,15.60
2022-12-23T07:38:38.393Z,15.60
2022-12-23T07:41:05.357Z,15.50
2022-12-23T07:43:32.270Z,15.60
2022-12-23T07:46:00.633Z,15.60
2022-12-23T07:48:28.212Z,15.60
2022-12-23T07:51:01.398Z,15.60
2022-12-23T07:53:28.403Z,15.70
2022-12-23T07:55:56.777Z,15.70
2022-12-23T07:58:24.190Z,15.80
2022-12-23T08:00:50.990Z,15.70
2022-12-23T08:03:17.987Z,15.70
2022-12-23T08:05:44.894Z,15.70
2022-12-23T08:08:11.989Z,15.80
2022-12-23T08:10:44.421Z,15.80
2022-12-23T08:13:14.716Z,15.80
2022-12-23T08:15:41.557Z,15.70
2022-12-23T08:18:08.268Z,15.80
2022-12-23T08:20:34.989Z,15.80
2022-12-23T08:23:01.741Z,15.80
2022-12-23T08:25:28.540Z,15.90
2022-12-23T08:27:55.303Z,15.90
2022-12-23T08:30:22.096Z,15.90
2022-12-23T08:32:50.014Z,15.90
2022-12-23T08:35:16.910Z,16.00
2022-12-23T08:37:43.751Z,15.90
2022-12-23T08:40:11.724Z,15.90
2022-12-23T08:42:38.616Z,15.90
2022-12-23T08:45:05.558Z,15.90
2022-12-23T08:47:32.299Z,15.90
2022-12-23T08:49:59.161Z,15.90
2022-12-23T08:52:25.940Z,16.00
2022-12-23T08:54:53.648Z,16.00
2022-12-23T08:57:20.429Z,16.00
2022-12-23T08:59:48.357Z,16.00
2022-12-23T09:02:15.248Z,16.00
2022-12-23T09:04:42.253Z,16.00
2022-12-23T09:07:09.125Z,16.10
2022-12-23T09:09:38.288Z,16.00
2022-12-23T09:12:05.224Z,16.00
2022-12-23T09:14:32.075Z,16.00
2022-12-23T09:16:58.895Z,16.00
2022-12-23T09:19:25.669Z,16.00
2022-12-23T09:21:52.503Z,16.10
2022-12-23T09:24:19.243Z,16.10
2022-12-23T09:26:46.139Z,16.20
2022-12-23T09:29:12.907Z,16.20
2022-12-23T09:31:39.725Z,16.20
2022-12-23T09:34:06.888Z,16.20
2022-12-23T09:36:33.979Z,16.20
2022-12-23T09:39:00.863Z,16.20
2022-12-23T09:41:46.353Z,16.20
2022-12-23T09:44:57.117Z,16.20
2022-12-23T09:47:26.480Z,16.20
2022-12-23T09:49:58.948Z,16.20
2022-12-23T09:52:47.038Z,16.30
2022-12-23T09:55:15.077Z,16.30
2022-12-23T09:57:47.646Z,16.30
2022-12-23T10:00:18.165Z,16.30
2022-12-23T10:03:19.175Z,16.30
2022-12-23T10:05:56.240Z,16.30
2022-12-23T10:08:34.294Z,16.20
2022-12-23T10:11:28.220Z,16.20
2022-12-23T10:14:03.313Z,16.30
2022-12-23T10:16:38.766Z,16.40
2022-12-23T10:19:41.664Z,16.40
2022-12-23T10:22:20.207Z,16.40
2022-12-23T10:24:48.346Z,16.40
2022-12-23T10:27:37.085Z,16.30
2022-12-23T10:33:19.322Z,16.40
2022-12-23T10:36:09.641Z,16.40
2022-12-23T10:38:55.665Z,16.40
2022-12-23T10:41:53.875Z,16.40
2022-12-23T10:44:50.518Z,16.40
2022-12-23T10:47:57.338Z,16.30
2022-12-23T10:50:46.181Z,16.30
2022-12-23T10:53:24.471Z,16.40
2022-12-23T10:55:51.432Z,16.30
2022-12-23T10:58:19.401Z,16.30
2022-12-23T11:00:52.435Z,16.30
2022-12-23T11:03:36.581Z,16.50
2022-12-23T11:06:06.124Z,16.50
2022-12-23T11:08:32.967Z,16.50
2022-12-23T11:11:01.358Z,16.40
2022-12-23T11:13:36.657Z,16.50
2022-12-23T11:16:25.891Z,16.40
2022-12-23T11:19:00.286Z,16.40
2022-12-23T11:21:29.062Z,16.30
2022-12-23T11:24:17.929Z,16.40
2022-12-23T11:26:50.501Z,16.30
2022-12-23T11:29:25.075Z,16.30
2022-12-23T11:31:52.251Z,16.30
2022-12-23T11:34:22.552Z,16.20
2022-12-23T11:37:01.751Z,16.20
2022-12-23T11:39:36.436Z,16.20
2022-12-23T11:42:15.700Z,16.20
2022-12-23T11:44:48.885Z,16.20
2022-12-23T11:47:26.604Z,16.20
2022-12-23T11:50:05.357Z,16.20
2022-12-23T11:52:33.454Z,16.20
2022-12-23T11:55:05.031Z,16.20
2022-12-23T11:57:49.117Z,16.10
2022-12-23T12:00:40.037Z,16.20
2022-12-23T12:03:08.195Z,16.20
2022-12-23T12:05:48.783Z,16.20
2022-12-23T12:08:21.916Z,16.20
2022-12-23T12:10:52.872Z,16.20
2022-12-23T12:13:29.077Z,16.20
2022-12-23T12:16:31.058Z,16.30
2022-12-23T12:19:05.094Z,16.30
2022-12-23T12:21:37.769Z,16.20
2022-12-23T12:24:19.532Z,16.20
2022-12-23T12:26:51.590Z,16.20
2022-12-23T12:29:39.894Z,16.20
2022-12-23T12:32:30.781Z,16.20
2022-12-23T12:35:03.361Z,16.20
2022-12-23T12:37:40.909Z,16.20
2022-12-23T12:40:41.400Z,16.10
2022-12-23T12:43:27.737Z,16.20
2022-12-23T12:46:20.634Z,16.20
2022-12-23T12:49:02.464Z,16.10
2022-12-23T12:51:43.353Z,16.10
2022-12-23T12:54:22.484Z,16.20
2022-12-23T12:56:53.373Z,16.20
2022-12-23T12:59:28.105Z,16.20
2022-12-23T13:02:11.144Z,16.20
2022-12-23T13:04:48.165Z,16.20
2022-12-23T13:07:26.517Z,16.20
2022-12-23T13:09:56.125Z,16.20
2022-12-23T13:12:38.148Z,16.20
2022-12-23T13:15:10.366Z,16.20
2022-12-23T13:18:07.396Z,16.20
2022-12-23T13:20:51.303Z,16.30
2022-12-23T13:23:43.428Z,16.30
2022-12-23T13:26:29.426Z,16.30
2022-12-23T13:28:59.269Z,16.20
2022-12-23T13:31:47.295Z,16.20
2022-12-23T13:34:26.361Z,16.20
2022-12-23T13:37:20.526Z,16.20
2022-12-23T13:39:53.015Z,16.20
2022-12-23T13:42:29.958Z,16.20
2022-12-23T13:44:58.116Z,16.30
2022-12-23T13:47:35.629Z,16.30
2022-12-23T13:50:16.369Z,16.30
2022-12-23T13:53:01.958Z,16.20
2022-12-23T13:56:07.088Z,16.30
2022-12-23T13:58:34.140Z,16.20
2022-12-23T14:01:10.116Z,16.20
2022-12-23T14:03:39.585Z,16.20
2022-12-23T14:06:32.721Z,16.20
2022-12-23T14:08:59.505Z,16.30
2022-12-23T14:11:30.054Z,16.30
2022-12-23T14:14:00.453Z,16.30
2022-12-23T14:17:00.851Z,16.40
2022-12-23T14:19:42.625Z,16.50
2022-12-23T14:22:37.119Z,16.50
2022-12-23T14:25:28.693Z,16.50
2022-12-23T14:27:58.320Z,16.60
2022-12-23T14:30:40.208Z,16.50
2022-12-23T14:33:32.753Z,16.50
2022-12-23T14:36:26.630Z,16.50
2022-12-23T14:39:11.710Z,16.40
2022-12-23T14:42:05.131Z,16.30
2022-12-23T14:44:36.144Z,16.30
2022-12-23T14:47:23.764Z,16.30
2022-12-23T14:49:50.647Z,16.40
2022-12-23T14:52:40.791Z,16.40
2022-12-23T14:55:31.997Z,16.40
2022-12-23T14:58:17.461Z,16.40
2022-12-23T15:00:55.205Z,16.40
2022-12-23T15:03:22.953Z,16.40
2022-12-23T15:05:51.072Z,16.40
2022-12-23T15:08:32.127Z,16.40
2022-12-23T15:10:59.834Z,16.40
2022-12-23T15:13:28.838Z,16.40
2022-12-23T15:16:01.342Z,16.40
2022-12-23T15:18:29.015Z,16.40
2022-12-23T15:21:00.311Z,16.40
2022-12-23T15:23:27.178Z,16.40
2022-12-23T15:25:58.751Z,16.30
2022-12-23T15:28:38.191Z,16.30
2022-12-23T15:31:06.524Z,16.20
2022-12-23T15:36:32.124Z,16.20
2022-12-23T15:39:00.745Z,16.20
2022-12-23T15:41:28.358Z,16.20
2022-12-23T15:44:01.948Z,16.20
2022-12-23T15:46:31.661Z,16.10
2022-12-23T15:48:58.556Z,16.10
2022-12-23T15:51:42.914Z,16.20
2022-12-23T15:54:26.594Z,16.20
2022-12-23T15:56:54.050Z,16.10
2022-12-23T15:59:25.464Z,16.10
2022-12-23T16:01:53.310Z,16.10
2022-12-23T16:04:25.238Z,16.20
2022-12-23T16:06:52.693Z,16.20
2022-12-23T16:09:19.443Z,16.10
2022-12-23T16:12:00.631Z,16.00
2022-12-23T16:14:30.885Z,15.90
2022-12-23T16:17:09.903Z,16.00
2022-12-23T16:19:48.795Z,15.90
2022-12-23T16:22:29.051Z,15.90
2022-12-23T16:25:15.302Z,16.00
2022-12-23T16:28:14.028Z,16.00
2022-12-23T16:30:42.687Z,16.00
2022-12-23T16:33:24.404Z,16.10
2022-12-23T16:35:53.249Z,16.10
2022-12-23T16:38:25.528Z,16.00
2022-12-23T16:40:56.576Z,16.00
2022-12-23T16:43:24.791Z,16.10
2022-12-23T16:45:55.569Z,16.10
2022-12-23T16:48:38.347Z,16.10
2022-12-23T16:51:12.614Z,16.20
2022-12-23T16:53:39.494Z,16.20
2022-12-23T16:56:17.362Z,16.10
2022-12-23T16:58:44.810Z,16.20
2022-12-23T17:01:27.086Z,16.20
2022-12-23T17:03:55.846Z,16.10
2022-12-23T17:06:23.499Z,16.00
2022-12-23T17:08:53.831Z,16.10
2022-12-23T17:11:36.188Z,16.20
2022-12-23T17:14:07.873Z,16.20
2022-12-23T17:16:37.296Z,16.20
2022-12-23T17:19:05.482Z,16.10
2022-12-23T17:21:36.638Z,16.00
2022-12-23T17:24:09.483Z,15.90
2022-12-23T17:26:36.201Z,15.70
2022-12-23T17:29:04.983Z,15.50
2022-12-23T17:31:33.944Z,15.40
2022-12-23T17:34:01.854Z,15.30
2022-12-23T17:36:29.374Z,15.30
2022-12-23T17:38:56.202Z,15.30
2022-12-23T17:41:31.389Z,15.30
2022-12-23T17:43:59.198Z,15.40
2022-12-23T17:46:27.001Z,15.30
2022-12-23T17:48:53.807Z,15.30
2022-12-23T17:51:22.556Z,15.30
2022-12-23T17:53:56.837Z,15.20
2022-12-23T17:56:24.955Z,15.30
2022-12-23T17:58:52.082Z,15.30
2022-12-23T18:01:24.235Z,15.30
2022-12-23T18:03:51.117Z,15.30
2022-12-23T18:06:19.962Z,15.40
2022-12-23T18:08:47.139Z,15.40
2022-12-23T18:11:32.619Z,15.40
2022-12-23T18:14:00.086Z,15.40
2022-12-23T18:16:27.116Z,15.50
2022-12-23T18:18:53.920Z,15.50
2022-12-23T18:21:24.380Z,15.40
2022-12-23T18:23:53.231Z,15.50
2022-12-23T18:26:20.063Z,15.40
2022-12-23T18:28:47.075Z,15.30
2022-12-23T18:31:17.298Z,15.20
2022-12-23T18:33:44.283Z,15.20
2022-12-23T18:36:29.217Z,15.10
2022-12-23T18:38:57.270Z,15.10
2022-12-23T18:41:25.801Z,15.10
2022-12-23T18:43:53.633Z,15.10
2022-12-23T18:46:21.162Z,15.10
2022-12-23T18:48:48.480Z,15.10
2022-12-23T18:51:17.499Z,15.10
2022-12-23T18:53:45.056Z,15.00
2022-12-23T18:56:16.327Z,15.10
2022-12-23T18:58:43.229Z,15.10
2022-12-23T19:01:14.803Z,15.10
2022-12-23T19:03:42.492Z,15.10
2022-12-23T19:06:13.323Z,15.10
2022-12-23T19:08:41.399Z,15.10
2022-12-23T19:11:17.918Z,15.10
2022-12-23T19:13:45.436Z,15.00
2022-12-23T19:16:17.974Z,15.00
2022-12-23T19:18:45.665Z,15.00
2022-12-23T19:21:12.820Z,15.00
2022-12-23T19:23:41.251Z,15.00
2022-12-23T19:26:13.726Z,15.00
2022-12-23T19:28:41.756Z,15.00
2022-12-23T19:31:13.739Z,14.90
2022-12-23T19:33:42.491Z,14.90
2022-12-23T19:36:19.076Z,14.90
2022-12-23T19:38:46.217Z,14.80
2022-12-23T19:41:13.107Z,14.90
2022-12-23T19:43:42.760Z,14.90
2022-12-23T19:46:11.155Z,14.90
2022-12-23T19:48:38.095Z,14.90
2022-12-23T19:51:14.061Z,15.00
2022-12-23T19:53:42.068Z,15.00
2022-12-23T19:56:13.883Z,15.00
2022-12-23T19:58:43.549Z,15.00
2022-12-23T20:01:12.489Z,15.10
2022-12-23T20:03:40.246Z,15.20
2022-12-23T20:06:08.632Z,15.10
2022-12-23T20:08:35.512Z,15.10
2022-12-23T20:11:11.019Z,15.20
2022-12-23T20:13:38.569Z,15.20
2022-12-23T20:16:06.790Z,15.10
2022-12-23T20:18:34.258Z,15.20
2022-12-23T20:21:01.457Z,15.20
2022-12-23T20:23:29.122Z,15.20
2022-12-23T20:25:56.216Z,15.30
2022-12-23T20:28:23.261Z,15.20
2022-12-23T20:31:08.979Z,15.20
2022-12-23T20:33:37.148Z,15.20
2022-12-23T20:36:06.413Z,15.20
2022-12-23T20:38:39.016Z,15.20
2022-12-23T20:41:07.531Z,15.20
2022-12-23T20:43:34.806Z,15.20
2022-12-23T20:46:06.061Z,15.10
2022-12-23T20:48:34.567Z,15.10
2022-12-23T20:51:10.940Z,15.10
2022-12-23T20:53:38.059Z,15.10
2022-12-23T20:56:07.220Z,15.10
2022-12-23T20:58:54.493Z,15.10
2022-12-23T21:01:26.159Z,15.10
2022-12-23T21:03:53.284Z,15.10
2022-12-23T21:06:20.765Z,15.00
2022-12-23T21:08:47.732Z,15.10
2022-12-23T21:11:14.958Z,15.20
2022-12-23T21:13:43.793Z,15.20
2022-12-23T21:16:12.973Z,15.10
2022-12-23T21:18:41.990Z,15.10
2022-12-23T21:21:09.137Z,15.10
2022-12-23T21:23:41.470Z,15.10
2022-12-23T21:26:09.581Z,15.20
2022-12-23T21:28:37.183Z,15.20
2022-12-23T21:31:04.625Z,15.20
2022-12-23T21:33:31.652Z,15.20
2022-12-23T21:35:58.546Z,15.20
2022-12-23T21:38:25.281Z,15.20
2022-12-23T21:40:58.370Z,15.10
2022-12-23T21:43:25.068Z,15.10
2022-12-23T21:45:59.786Z,15.10
2022-12-23T21:48:27.605Z,15.10
2022-12-23T21:50:54.517Z,15.10
2022-12-23T21:53:21.553Z,15.10
2022-12-23T21:55:48.488Z,15.10
2022-12-23T21:58:15.280Z,15.10
2022-12-23T22:00:47.944Z,15.00
2022-12-23T22:03:14.752Z,15.00
2022-12-23T22:05:41.799Z,15.00
2022-12-23T22:08:08.695Z,14.90
2022-12-23T22:10:38.457Z,14.80
2022-12-23T22:13:05.800Z,14.80
2022-12-23T22:15:32.654Z,14.60
2022-12-23T22:17:59.426Z,14.60
2022-12-23T22:20:26.399Z,14.50
2022-12-23T22:22:54.418Z,14.40
2022-12-23T22:25:21.817Z,14.30
2022-12-23T22:27:48.568Z,14.30
2022-12-23T22:30:15.532Z,14.30
2022-12-23T22:32:42.789Z,14.40
2022-12-23T22:35:10.223Z,14.40
2022-12-23T22:37:37.514Z,14.40
2022-12-23T22:40:04.631Z,14.40
2022-12-23T22:42:31.455Z,14.50
2022-12-23T22:44:58.306Z,14.50
2022-12-23T22:47:25.397Z,14.50
2022-12-23T22:49:52.252Z,14.50
2022-12-23T22:52:26.747Z,14.50
2022-12-23T22:54:53.555Z,14.50
2022-12-23T22:57:20.288Z,14.50
2022-12-23T22:59:47.141Z,14.50
2022-12-23T23:02:13.946Z,14.60
2022-12-23T23:04:40.771Z,14.60
2022-12-23T23:07:08.232Z,14.70
2022-12-23T23:09:35.035Z,14.80
2022-12-23T23:12:01.812Z,14.70
2022-12-23T23:14:48.556Z,14.80
2022-12-23T23:17:15.414Z,14.80
2022-12-23T23:19:42.210Z,14.80
2022-12-23T23:22:08.898Z,14.80
2022-12-23T23:24:35.586Z,14.70
2022-12-23T23:27:02.546Z,14.80
2022-12-23T23:29:29.373Z,14.80
2022-12-23T23:31:56.198Z,14.90
2022-12-23T23:34:23.006Z,14.90
2022-12-23T23:36:49.899Z,14.80
2022-12-23T23:39:16.855Z,14.80
2022-12-23T23:41:43.693Z,14.80
2022-12-23T23:44:11.303Z,14.70
2022-12-23T23:46:38.893Z,14.60
2022-12-23T23:49:06.921Z,14.70
2022-12-23T23:51:33.933Z,14.70
2022-12-23T23:54:00.719Z,14.50
2022-12-23T23:56:32.337Z,14.60
2022-12-23T23:59:02.853Z,14.60
